Current Weather

Fukuoka

Fukuoka, Japan (RJFF)

Report from: Friday, April 19, 2024 6:00 PM JST
Current time: Friday, April 19, 2024 6:22 PM JST

Nearby weather – Weather history – Daily summaries
Weather forecast

Temperature21.0°C (69.8°F)
Dew point10.0°C (50.0°F)
Winds 5 kts (2.6 m/s, 5.8 mph) Vrb
Winds variableWinds variable from West (260°) to North (359.999999°)
Clouds Sky clear
Altimeter29.88 in.Hg (1012 mB)
Relative humidity49 %
Density altitude918 ft. (280 m)
Remarks Ceiling and visibility OK
Flight conditions Visual Meteorological Conditions
Raw dataRJFF 190900Z 32005KT 260V360 CAVOK 21/10 Q1012 BECMG FM1030 12003KT
An error has occurred. This application may no longer respond until reloaded. Reload 🗙